Time;durP1;ratioP1;P1;durP2;ratioP2;P2;SDS_P1;SDS_P2;PMS_P1;PMS_P2;Temp;Humidity;BMP_temperature;BMP_pressure;BME280_temperature;BME280_humidity;BME280_pressure;Samples;Min_cycle;Max_cycle;Signal;HPM_P1;HPM_P2
2024/02/02 00:01:23;;;;;;;41.97;5.37;;;5.10;99.90;;;;;;5052480;28;20174;-62
2024/02/02 00:03:48;;;;;;;24.87;4.57;;;5.10;99.90;;;;;;5051786;28;20664;-62
2024/02/02 00:06:14;;;;;;;9.77;2.93;;;5.00;99.90;;;;;;5052004;28;20196;-62
2024/02/02 00:08:40;;;;;;;10.50;3.63;;;4.90;99.90;;;;;;5052013;28;20174;-62
2024/02/02 00:11:05;;;;;;;30.40;3.50;;;5.00;99.90;;;;;;5051872;28;20206;-62
2024/02/02 00:13:31;;;;;;;17.00;1.90;;;5.10;99.90;;;;;;5051883;28;20173;-62
2024/02/02 00:15:56;;;;;;;2.30;1.30;;;5.10;99.90;;;;;;5051896;28;20571;-61
2024/02/02 00:18:22;;;;;;;1.57;1.30;;;5.00;99.90;;;;;;5051540;28;20163;-62
2024/02/02 00:20:48;;;;;;;2.00;1.27;;;4.90;99.90;;;;;;5051561;28;20174;-62
2024/02/02 00:23:13;;;;;;;1.83;0.90;;;4.90;99.90;;;;;;5051897;28;20201;-62
2024/02/02 00:25:39;;;;;;;1.20;1.10;;;4.70;99.90;;;;;;5051890;28;20182;-62
2024/02/02 00:28:05;;;;;;;0.70;0.70;;;4.70;99.90;;;;;;5051769;28;20776;-62
2024/02/02 00:30:34;;;;;;;1.80;1.20;;;4.50;99.90;;;;;;5051611;28;20186;-62
2024/02/02 00:33:01;;;;;;;2.05;1.35;;;4.40;99.90;;;;;;5051364;28;20416;-62
2024/02/02 00:35:27;;;;;;;1.98;1.27;;;4.30;99.90;;;;;;5051672;28;20185;-62
2024/02/02 00:37:53;;;;;;;5.83;1.40;;;4.20;99.90;;;;;;5051624;28;20170;-62
2024/02/02 00:40:18;;;;;;;1.23;1.07;;;4.10;99.90;;;;;;5051621;28;20941;-62
2024/02/02 00:42:44;;;;;;;1.77;1.67;;;4.10;99.90;;;;;;5051405;28;20431;-62
2024/02/02 00:45:11;;;;;;;2.20;1.43;;;4.20;99.90;;;;;;5051592;28;20216;-62
2024/02/02 00:47:37;;;;;;;0.98;0.93;;;4.10;99.90;;;;;;5051382;28;20213;-62
2024/02/02 00:50:05;;;;;;;1.23;1.13;;;4.10;99.90;;;;;;5051643;28;20213;-62
2024/02/02 00:52:31;;;;;;;1.58;1.48;;;4.00;99.90;;;;;;5051305;28;20423;-62
2024/02/02 00:54:57;;;;;;;1.17;1.08;;;3.90;99.90;;;;;;5051738;28;20503;-62
2024/02/02 00:57:22;;;;;;;1.17;1.07;;;4.00;99.90;;;;;;5051881;28;20265;-62
2024/02/02 00:59:50;;;;;;;2.53;0.90;;;4.00;99.90;;;;;;5051413;28;20180;-62
2024/02/02 01:02:16;;;;;;;1.45;1.35;;;4.00;99.90;;;;;;5051181;28;20198;-62
2024/02/02 01:04:42;;;;;;;1.73;1.50;;;3.90;99.90;;;;;;5051330;28;20202;-62
2024/02/02 01:07:08;;;;;;;1.00;1.00;;;3.80;99.90;;;;;;5051226;28;20943;-62
2024/02/02 01:09:34;;;;;;;1.00;1.00;;;3.60;99.90;;;;;;5051398;28;20198;-62
2024/02/02 01:12:00;;;;;;;1.23;0.88;;;3.50;99.90;;;;;;5051198;28;20170;-62
2024/02/02 01:14:26;;;;;;;1.20;1.10;;;3.50;99.90;;;;;;5051142;28;20212;-62
2024/02/02 01:16:51;;;;;;;1.50;1.40;;;3.60;99.90;;;;;;5051196;28;20627;-62
2024/02/02 01:19:17;;;;;;;2.10;0.90;;;3.80;99.90;;;;;;5051299;28;20178;-62
2024/02/02 01:21:43;;;;;;;1.97;1.87;;;3.80;99.90;;;;;;5051435;28;20648;-62
2024/02/02 01:24:08;;;;;;;6.70;1.70;;;3.70;99.90;;;;;;5051065;28;20174;-62
2024/02/02 01:26:35;;;;;;;9.87;4.67;;;3.60;99.90;;;;;;5051210;28;20197;-62
2024/02/02 01:29:01;;;;;;;121.95;11.40;;;3.50;99.90;;;;;;5051089;28;20267;-62
2024/02/02 01:31:27;;;;;;;63.73;10.60;;;3.40;99.90;;;;;;5052370;28;20238;-62
2024/02/02 01:33:52;;;;;;;23.70;4.17;;;3.30;99.90;;;;;;5054843;28;20198;-62
2024/02/02 01:36:18;;;;;;;3.87;2.57;;;3.20;99.90;;;;;;5054679;28;20213;-62
2024/02/02 01:38:46;;;;;;;37.50;5.33;;;3.40;99.90;;;;;;5054875;28;20246;-62
2024/02/02 01:41:12;;;;;;;141.45;14.68;;;3.50;99.90;;;;;;5054648;28;20177;-62
2024/02/02 01:43:38;;;;;;;89.87;10.27;;;3.50;99.90;;;;;;5054531;28;20253;-62
2024/02/02 01:46:04;;;;;;;72.27;10.10;;;3.50;99.90;;;;;;5054628;28;20656;-61
2024/02/02 01:48:30;;;;;;;80.40;12.07;;;3.50;99.90;;;;;;5054663;28;20375;-61
2024/02/02 01:50:56;;;;;;;72.60;8.77;;;3.50;99.90;;;;;;5054373;28;20295;-61
2024/02/02 01:53:22;;;;;;;130.35;12.77;;;3.50;99.90;;;;;;5054454;28;20181;-62
2024/02/02 01:55:48;;;;;;;23.07;4.83;;;3.50;99.90;;;;;;5054382;28;20570;-62
2024/02/02 01:58:14;;;;;;;61.93;8.57;;;3.30;99.90;;;;;;5054368;28;20404;-62
2024/02/02 02:00:40;;;;;;;60.35;8.27;;;3.10;99.90;;;;;;5054547;28;20527;-62
2024/02/02 02:03:06;;;;;;;55.87;7.07;;;3.10;99.90;;;;;;5054310;28;20183;-62
2024/02/02 02:05:31;;;;;;;72.93;8.80;;;3.30;99.90;;;;;;5054266;28;20166;-62
2024/02/02 02:07:57;;;;;;;50.33;7.90;;;3.40;99.90;;;;;;5054296;28;20201;-61
2024/02/02 02:10:24;;;;;;;43.17;7.63;;;3.50;99.90;;;;;;5054121;28;20202;-62
2024/02/02 02:12:50;;;;;;;20.17;3.72;;;3.50;99.90;;;;;;5053809;28;20166;-62
2024/02/02 02:15:16;;;;;;;43.08;8.02;;;3.50;99.90;;;;;;5054383;28;20580;-62
2024/02/02 02:17:42;;;;;;;40.40;5.77;;;3.60;99.90;;;;;;5054261;28;20198;-62
2024/02/02 02:20:12;;;;;;;30.63;4.47;;;3.70;99.90;;;;;;5054189;28;20178;-62
2024/02/02 02:22:37;;;;;;;38.85;6.65;;;3.60;99.90;;;;;;5053719;28;20188;-62
2024/02/02 02:25:03;;;;;;;29.20;5.93;;;3.60;99.90;;;;;;5053999;28;20170;-62
2024/02/02 02:27:29;;;;;;;31.52;6.43;;;3.60;99.90;;;;;;5053797;28;20546;-62
2024/02/02 02:29:55;;;;;;;40.77;6.40;;;3.60;99.90;;;;;;5053779;28;20248;-62
2024/02/02 02:32:20;;;;;;;30.67;2.93;;;3.60;99.90;;;;;;5053566;28;20206;-62
2024/02/02 02:34:46;;;;;;;15.47;5.03;;;3.70;99.90;;;;;;5053811;28;20185;-62
2024/02/02 02:37:12;;;;;;;5.10;2.17;;;3.70;99.90;;;;;;5053612;28;20212;-62
2024/02/02 02:39:38;;;;;;;13.27;3.80;;;3.70;99.90;;;;;;5053696;28;20182;-62
2024/02/02 02:42:04;;;;;;;21.03;3.57;;;3.70;99.90;;;;;;5053055;28;20257;-62
2024/02/02 02:44:29;;;;;;;29.80;3.43;;;3.70;99.90;;;;;;5053619;28;20315;-62
2024/02/02 02:46:55;;;;;;;11.83;3.80;;;3.80;99.90;;;;;;5053547;28;20269;-62
2024/02/02 02:49:20;;;;;;;13.13;3.50;;;3.80;99.90;;;;;;5053427;28;20193;-62
2024/02/02 02:51:46;;;;;;;29.63;3.43;;;3.90;99.90;;;;;;5053396;28;20170;-62
2024/02/02 02:54:12;;;;;;;28.70;3.00;;;3.80;99.90;;;;;;5053354;28;20636;-62
2024/02/02 02:56:37;;;;;;;16.73;3.00;;;3.80;99.90;;;;;;5053186;28;20190;-62
2024/02/02 02:59:03;;;;;;;11.23;2.07;;;3.80;99.90;;;;;;5053358;28;20679;-62
2024/02/02 03:01:28;;;;;;;4.93;2.93;;;3.80;99.90;;;;;;5053176;28;20181;-62
2024/02/02 03:03:54;;;;;;;16.93;4.20;;;4.00;99.90;;;;;;5053410;28;20181;-62
2024/02/02 03:06:20;;;;;;;18.83;4.40;;;4.10;99.90;;;;;;5053165;28;20201;-62
2024/02/02 03:08:45;;;;;;;27.43;4.17;;;4.10;99.90;;;;;;5053103;28;20178;-62
2024/02/02 03:11:11;;;;;;;8.37;3.30;;;4.10;99.90;;;;;;5052772;28;20578;-62
2024/02/02 03:13:37;;;;;;;9.00;3.10;;;4.10;99.90;;;;;;5052884;28;20182;-62
2024/02/02 03:16:02;;;;;;;6.33;2.63;;;4.00;99.90;;;;;;5053134;28;20187;-62
2024/02/02 03:18:28;;;;;;;2.70;2.23;;;4.00;99.90;;;;;;5053115;28;20647;-62
2024/02/02 03:20:54;;;;;;;2.53;2.00;;;4.00;99.90;;;;;;5052872;28;20236;-62
2024/02/02 03:23:19;;;;;;;2.07;1.90;;;3.90;99.90;;;;;;5052774;28;20170;-62
2024/02/02 03:25:45;;;;;;;3.97;2.60;;;3.80;99.90;;;;;;5052688;28;20573;-62
2024/02/02 03:28:11;;;;;;;1.90;1.80;;;3.70;99.90;;;;;;5052796;28;20205;-62
2024/02/02 03:30:36;;;;;;;4.43;2.10;;;3.60;99.90;;;;;;5052687;28;20228;-62
2024/02/02 03:33:02;;;;;;;2.70;1.87;;;3.60;99.90;;;;;;5052430;28;20404;-62
2024/02/02 03:35:28;;;;;;;2.87;2.03;;;3.70;99.90;;;;;;5052465;28;20666;-62
2024/02/02 03:37:54;;;;;;;2.65;1.08;;;3.70;99.90;;;;;;5120896;22;20584;-63
2024/02/02 03:40:20;;;;;;;1.30;1.20;;;3.70;99.90;;;;;;5068837;28;20181;-63
2024/02/02 03:42:45;;;;;;;1.40;1.13;;;3.60;99.90;;;;;;5073155;28;20177;-63
2024/02/02 03:45:11;;;;;;;1.87;1.33;;;3.60;99.90;;;;;;5072326;28;20483;-63
2024/02/02 03:47:37;;;;;;;1.47;1.37;;;3.60;99.90;;;;;;5072058;28;20217;-63
2024/02/02 03:50:02;;;;;;;2.93;2.13;;;3.60;99.90;;;;;;5072414;28;20205;-64
2024/02/02 03:52:28;;;;;;;12.70;4.20;;;3.70;99.90;;;;;;5071870;28;20165;-63
2024/02/02 03:54:54;;;;;;;2.93;2.10;;;3.60;99.90;;;;;;5071387;28;20404;-63
2024/02/02 03:57:19;;;;;;;3.30;2.07;;;3.60;99.90;;;;;;5071985;28;20735;-63
2024/02/02 03:59:45;;;;;;;4.30;3.43;;;3.70;99.90;;;;;;5071810;28;20492;-63
2024/02/02 04:02:11;;;;;;;4.53;3.47;;;3.70;99.90;;;;;;5071592;28;20586;-63
2024/02/02 04:04:36;;;;;;;5.10;2.43;;;3.70;99.90;;;;;;5071868;28;20585;-63
2024/02/02 04:07:02;;;;;;;4.40;2.57;;;3.70;99.90;;;;;;5071730;28;20420;-63
2024/02/02 04:09:28;;;;;;;3.97;3.63;;;3.90;99.90;;;;;;5071865;28;20173;-63
2024/02/02 04:11:53;;;;;;;2.03;1.83;;;3.90;99.90;;;;;;5071645;28;20170;-63
2024/02/02 04:14:19;;;;;;;2.63;1.83;;;3.90;99.90;;;;;;5071606;28;20868;-63
2024/02/02 04:16:45;;;;;;;2.40;1.93;;;3.90;99.90;;;;;;5071662;28;20280;-63
2024/02/02 04:19:15;;;;;;;2.47;1.27;;;4.00;99.90;;;;;;5071448;28;20175;-64
2024/02/02 04:21:41;;;;;;;3.33;1.63;;;4.00;99.90;;;;;;5071557;28;20546;-64
2024/02/02 04:24:07;;;;;;;1.80;1.52;;;4.10;99.90;;;;;;5071367;28;20205;-63
2024/02/02 04:26:33;;;;;;;4.65;2.50;;;4.20;99.90;;;;;;5071524;28;20247;-63
2024/02/02 04:28:58;;;;;;;3.87;2.30;;;4.30;99.90;;;;;;5071774;28;20177;-64
2024/02/02 04:31:24;;;;;;;3.17;2.57;;;4.30;99.90;;;;;;5071218;28;20209;-63
2024/02/02 04:33:50;;;;;;;6.87;2.47;;;4.30;99.90;;;;;;5071362;28;20176;-63
2024/02/02 04:36:16;;;;;;;3.13;2.25;;;4.40;99.90;;;;;;5071187;28;20210;-63
2024/02/02 04:38:42;;;;;;;3.47;2.13;;;4.40;99.90;;;;;;5071218;28;20179;-63
2024/02/02 04:41:07;;;;;;;2.43;1.80;;;4.50;99.90;;;;;;5071216;28;20179;-63
2024/02/02 04:43:33;;;;;;;2.33;2.13;;;4.50;99.90;;;;;;5071191;28;20180;-63
2024/02/02 04:45:59;;;;;;;2.10;2.00;;;4.50;99.90;;;;;;5071156;28;20609;-63
2024/02/02 04:48:24;;;;;;;5.23;2.00;;;4.40;99.90;;;;;;5071303;28;20177;-63
2024/02/02 04:50:51;;;;;;;3.10;2.27;;;4.50;99.90;;;;;;5071036;28;20208;-63
2024/02/02 04:53:16;;;;;;;2.35;2.00;;;4.60;99.90;;;;;;5071181;28;20173;-63
2024/02/02 04:55:42;;;;;;;3.03;1.63;;;4.70;99.90;;;;;;5071226;28;20174;-63
2024/02/02 04:58:09;;;;;;;3.37;1.83;;;4.80;99.90;;;;;;5071497;28;20189;-63
2024/02/02 05:00:35;;;;;;;2.80;2.50;;;4.80;99.90;;;;;;5071081;28;20212;-63
2024/02/02 05:03:01;;;;;;;2.50;2.20;;;4.70;99.90;;;;;;5070833;28;20222;-63
2024/02/02 05:05:27;;;;;;;4.53;3.10;;;4.80;99.90;;;;;;5072850;28;20181;-64
2024/02/02 05:07:52;;;;;;;2.93;2.67;;;4.80;99.90;;;;;;5076756;28;20275;-63
2024/02/02 05:10:18;;;;;;;4.00;3.33;;;4.80;99.90;;;;;;5075046;28;20204;-63
2024/02/02 05:12:44;;;;;;;3.47;3.17;;;4.80;99.90;;;;;;5074990;28;20670;-64
2024/02/02 05:15:10;;;;;;;3.22;2.65;;;4.70;99.90;;;;;;5074901;28;20172;-63
2024/02/02 05:17:35;;;;;;;8.37;5.07;;;4.80;99.90;;;;;;5074959;28;20197;-63
2024/02/02 05:20:04;;;;;;;6.27;5.67;;;4.80;99.90;;;;;;5075030;28;20170;-63
2024/02/02 05:22:29;;;;;;;5.35;3.20;;;4.90;99.90;;;;;;5056677;28;20177;-63
2024/02/02 05:24:55;;;;;;;3.50;3.20;;;4.90;99.90;;;;;;5074860;28;20201;-63
2024/02/02 05:27:21;;;;;;;4.17;3.53;;;4.90;99.90;;;;;;5074754;28;20304;-63
2024/02/02 05:29:48;;;;;;;3.83;3.53;;;5.00;99.90;;;;;;5074576;28;20246;-64
2024/02/02 05:32:14;;;;;;;4.70;3.33;;;5.00;99.90;;;;;;5074465;28;20173;-63
2024/02/02 05:34:42;;;;;;;4.10;3.20;;;5.00;99.90;;;;;;5074658;28;20556;-64
2024/02/02 05:37:08;;;;;;;3.40;3.00;;;5.00;99.90;;;;;;5074634;28;20440;-63
2024/02/02 05:39:33;;;;;;;2.93;2.73;;;5.00;99.90;;;;;;5074542;28;20173;-63
2024/02/02 05:42:00;;;;;;;3.07;2.80;;;5.00;99.90;;;;;;5074405;28;20411;-63
2024/02/02 05:44:26;;;;;;;3.45;2.38;;;5.00;99.90;;;;;;5074194;28;20185;-64
2024/02/02 05:46:51;;;;;;;11.83;3.30;;;5.10;99.90;;;;;;5074362;28;20190;-64
2024/02/02 05:49:17;;;;;;;5.23;3.07;;;5.20;99.90;;;;;;5074279;28;20539;-63
2024/02/02 05:51:42;;;;;;;4.23;3.27;;;5.10;99.90;;;;;;5074208;28;20193;-64
2024/02/02 05:54:08;;;;;;;6.40;2.07;;;5.20;99.90;;;;;;5074111;28;20167;-63
2024/02/02 05:56:34;;;;;;;2.50;2.20;;;5.30;99.90;;;;;;5074267;28;20210;-63
2024/02/02 05:58:59;;;;;;;5.43;2.47;;;5.50;99.90;;;;;;5074038;28;20641;-63
2024/02/02 06:01:25;;;;;;;3.83;2.70;;;5.60;99.90;;;;;;5073998;28;20170;-63
2024/02/02 06:03:51;;;;;;;3.67;2.70;;;5.70;99.90;;;;;;5073916;28;20179;-63
2024/02/02 06:06:16;;;;;;;3.90;2.90;;;5.70;99.90;;;;;;5074063;28;20610;-64
2024/02/02 06:08:42;;;;;;;6.40;3.13;;;5.70;99.90;;;;;;5073952;28;20169;-64
2024/02/02 06:11:08;;;;;;;2.80;2.60;;;5.70;99.90;;;;;;5073719;28;20255;-64
2024/02/02 06:13:34;;;;;;;4.18;2.97;;;5.60;99.90;;;;;;5073724;28;20660;-63
2024/02/02 06:16:00;;;;;;;6.63;3.43;;;5.50;99.90;;;;;;5073838;28;20213;-63
2024/02/02 06:18:25;;;;;;;4.27;3.70;;;5.60;99.90;;;;;;5073084;28;20173;-63
2024/02/02 06:20:51;;;;;;;3.37;2.60;;;5.80;99.90;;;;;;5073570;28;20441;-63
2024/02/02 06:23:16;;;;;;;6.13;3.33;;;5.90;99.90;;;;;;5073619;28;20181;-63
2024/02/02 06:25:42;;;;;;;4.20;3.30;;;6.00;99.90;;;;;;5073675;28;20243;-64
2024/02/02 06:28:09;;;;;;;11.43;4.50;;;6.10;99.90;;;;;;5073690;28;20206;-63
2024/02/02 06:30:34;;;;;;;3.70;2.65;;;6.10;99.90;;;;;;5073679;28;20672;-63
2024/02/02 06:33:00;;;;;;;4.20;2.73;;;6.10;99.90;;;;;;5073976;28;20175;-63
2024/02/02 06:35:28;;;;;;;4.43;2.73;;;6.20;99.90;;;;;;5073184;28;20167;-63
2024/02/02 06:37:54;;;;;;;6.80;4.60;;;6.10;99.90;;;;;;5073303;28;20200;-63
2024/02/02 06:40:20;;;;;;;3.78;3.22;;;6.20;99.90;;;;;;5072988;28;20184;-63
2024/02/02 06:42:46;;;;;;;4.75;2.90;;;6.20;99.90;;;;;;5072720;28;20719;-63
2024/02/02 06:45:11;;;;;;;6.50;3.10;;;6.20;99.90;;;;;;5073356;28;20175;-64
2024/02/02 06:47:38;;;;;;;6.63;3.57;;;6.20;99.90;;;;;;5073213;28;20432;-63
2024/02/02 06:50:07;;;;;;;2.53;2.10;;;6.20;99.90;;;;;;5073133;28;20542;-63
2024/02/02 06:52:33;;;;;;;3.50;3.20;;;6.30;99.90;;;;;;5072767;28;20258;-63
2024/02/02 06:54:58;;;;;;;2.73;2.53;;;6.30;99.90;;;;;;5072990;28;20251;-64
2024/02/02 06:57:26;;;;;;;2.43;2.23;;;6.40;99.90;;;;;;5073015;28;20222;-63
2024/02/02 06:59:52;;;;;;;3.30;3.00;;;6.30;99.90;;;;;;5072294;28;20415;-63
2024/02/02 07:02:21;;;;;;;2.50;2.30;;;6.00;99.90;;;;;;5073144;28;20186;-63
2024/02/02 07:04:50;;;;;;;2.15;1.95;;;6.00;99.90;;;;;;5072829;28;20415;-63
2024/02/02 07:07:17;;;;;;;2.78;2.53;;;6.20;99.90;;;;;;5072631;28;20197;-63
2024/02/02 07:09:53;;;;;;;5.43;2.95;;;6.40;99.90;;;;;;5073017;28;20689;-63
2024/02/02 07:12:44;;;;;;;5.68;3.15;;;6.50;99.90;;;;;;5073172;28;20218;-63
2024/02/02 07:15:17;;;;;;;3.88;2.70;;;6.50;99.90;;;;;;5073255;28;20168;-63
2024/02/02 07:17:45;;;;;;;3.47;2.25;;;6.50;99.90;;;;;;5073027;28;20563;-62
2024/02/02 07:20:23;;;;;;;3.42;2.78;;;6.60;99.90;;;;;;5072867;28;20195;-64
2024/02/02 07:22:52;;;;;;;3.70;2.50;;;6.70;99.90;;;;;;5072445;28;20207;-63
2024/02/02 07:25:20;;;;;;;2.53;2.33;;;6.70;99.90;;;;;;5054899;28;20176;-63
2024/02/02 07:27:51;;;;;;;2.95;1.83;;;6.80;99.90;;;;;;5072069;28;20568;-64
2024/02/02 07:30:41;;;;;;;3.25;2.88;;;6.80;99.90;;;;;;5071668;28;20203;-62
2024/02/02 07:33:32;;;;;;;3.60;2.58;;;6.70;99.90;;;;;;5072059;28;20175;-64
2024/02/02 07:35:58;;;;;;;3.40;3.10;;;6.70;99.90;;;;;;5071403;28;20168;-64
2024/02/02 07:38:42;;;;;;;1.98;1.80;;;6.70;99.90;;;;;;5072239;28;20369;-64
2024/02/02 07:41:09;;;;;;;2.47;2.28;;;6.80;99.90;;;;;;5071972;28;20169;-64
2024/02/02 07:43:35;;;;;;;2.25;1.83;;;6.80;99.90;;;;;;5072178;28;20218;-64
2024/02/02 07:46:02;;;;;;;2.30;2.10;;;6.90;99.90;;;;;;5072373;28;20199;-64
2024/02/02 07:48:27;;;;;;;2.83;2.25;;;7.00;99.90;;;;;;5072259;28;20176;-64
2024/02/02 07:50:53;;;;;;;12.03;6.60;;;7.00;99.90;;;;;;5071796;28;20637;-64
2024/02/02 07:53:19;;;;;;;8.60;7.23;;;7.00;99.90;;;;;;5071824;28;20828;-64
2024/02/02 07:55:45;;;;;;;13.05;8.43;;;7.00;99.90;;;;;;5072425;28;20193;-64
2024/02/02 07:58:11;;;;;;;10.27;7.80;;;7.00;99.90;;;;;;5072775;28;20196;-64
2024/02/02 08:00:37;;;;;;;14.10;9.73;;;7.00;99.90;;;;;;5068591;28;20191;-65
2024/02/02 08:03:03;;;;;;;7.45;6.35;;;7.10;99.90;;;;;;5070520;28;20180;-63
2024/02/02 08:05:29;;;;;;;8.15;5.68;;;7.10;99.90;;;;;;5071637;28;20188;-64
2024/02/02 08:07:55;;;;;;;5.15;3.65;;;7.10;99.90;;;;;;5071449;28;20205;-63
2024/02/02 08:10:21;;;;;;;3.88;3.53;;;7.10;99.90;;;;;;5071297;28;20402;-63
2024/02/02 08:12:47;;;;;;;8.93;5.97;;;7.20;99.90;;;;;;5071439;28;20260;-63
2024/02/02 08:15:13;;;;;;;5.57;5.00;;;7.30;99.90;;;;;;5071740;28;20395;-63
2024/02/02 08:17:39;;;;;;;13.50;6.67;;;7.40;99.90;;;;;;5071293;28;20435;-64
2024/02/02 08:20:06;;;;;;;16.63;7.93;;;7.40;99.90;;;;;;5071706;28;20535;-64
2024/02/02 08:22:32;;;;;;;13.70;8.13;;;7.30;99.90;;;;;;5071444;28;21304;-63
2024/02/02 08:24:58;;;;;;;11.43;7.50;;;7.40;99.90;;;;;;5071562;28;20203;-62
2024/02/02 08:27:23;;;;;;;12.50;8.38;;;7.40;99.90;;;;;;5071739;28;20421;-63
2024/02/02 08:29:49;;;;;;;6.43;5.43;;;7.50;99.90;;;;;;5071659;28;20282;-63
2024/02/02 08:32:15;;;;;;;10.10;7.35;;;7.50;99.90;;;;;;5071377;28;20828;-63
2024/02/02 08:34:41;;;;;;;4.20;2.70;;;7.50;99.90;;;;;;5071764;28;20168;-63
2024/02/02 08:37:08;;;;;;;2.20;2.00;;;7.30;99.90;;;;;;5071261;28;20712;-63
2024/02/02 08:39:35;;;;;;;1.98;1.77;;;7.20;99.90;;;;;;5071364;28;20626;-64
2024/02/02 08:42:07;;;;;;;2.88;2.50;;;7.00;99.90;;;;;;5071636;28;20200;-63
2024/02/02 08:44:33;;;;;;;2.00;1.90;;;6.90;99.90;;;;;;5072322;28;20172;-63
2024/02/02 08:46:59;;;;;;;3.33;2.72;;;7.00;99.90;;;;;;5071875;28;20283;-63
2024/02/02 08:49:45;;;;;;;2.35;2.10;;;7.10;99.90;;;;;;5071982;28;20182;-63
2024/02/02 08:52:19;;;;;;;2.90;2.38;;;7.10;99.90;;;;;;5071421;28;20203;-63
2024/02/02 08:54:46;;;;;;;4.47;3.50;;;7.10;99.90;;;;;;5071475;28;20211;-63
2024/02/02 08:57:30;;;;;;;3.25;2.70;;;7.10;99.90;;;;;;5071583;28;20615;-63
2024/02/02 09:00:04;;;;;;;3.13;2.78;;;7.00;99.90;;;;;;5071625;28;20227;-63
2024/02/02 09:11:16;;;;;;;5.25;3.67;;;6.90;99.90;;;;;;5048393;28;20282;-64
2024/02/02 09:13:44;;;;;;;5.28;4.00;;;7.10;99.90;;;;;;5048292;28;20217;-64
2024/02/02 09:16:12;;;;;;;5.18;3.60;;;7.10;99.90;;;;;;5058047;28;20211;-65
2024/02/02 09:18:40;;;;;;;14.35;9.60;;;7.10;99.90;;;;;;5050612;28;20162;-65
2024/02/02 09:21:10;;;;;;;13.40;9.73;;;7.10;99.90;;;;;;5049441;28;20202;-65
2024/02/02 09:23:38;;;;;;;4.85;4.45;;;7.00;99.90;;;;;;5051111;28;20173;-64
2024/02/02 09:26:11;;;;;;;8.52;5.72;;;7.00;99.90;;;;;;5050811;28;20173;-64
2024/02/02 09:28:39;;;;;;;7.72;6.68;;;6.90;99.90;;;;;;5050964;28;20184;-64
2024/02/02 09:31:06;;;;;;;5.20;4.80;;;7.00;99.90;;;;;;5039896;28;20212;-65
2024/02/02 09:33:32;;;;;;;24.73;7.75;;;7.00;99.90;;;;;;5037446;28;20194;-67
2024/02/02 09:36:03;;;;;;;18.73;6.33;;;7.00;99.90;;;;;;5031553;28;20300;-66
2024/02/02 09:38:30;;;;;;;39.53;14.55;;;6.80;99.90;;;;;;5028636;28;20656;-64
2024/02/02 09:41:01;;;;;;;66.32;10.73;;;6.80;99.90;;;;;;5044220;28;20566;-65
2024/02/02 09:43:39;;;;;;;70.28;11.05;;;6.90;99.90;;;;;;5046152;28;20302;-66
2024/02/02 09:46:17;;;;;;;112.28;17.60;;;7.10;99.90;;;;;;5050600;28;20662;-66
2024/02/02 09:48:49;;;;;;;56.85;16.25;;;7.10;99.90;;;;;;5046081;28;20273;-64
2024/02/02 09:51:32;;;;;;;51.45;11.88;;;7.10;99.90;;;;;;5062208;28;20201;-63
2024/02/02 09:54:24;;;;;;;84.32;13.98;;;7.20;99.90;;;;;;5073096;28;20217;-64
2024/02/02 09:57:20;;;;;;;92.82;12.88;;;7.10;99.90;;;;;;5064915;28;20211;-64
2024/02/02 09:59:54;;;;;;;25.52;10.15;;;7.00;99.90;;;;;;5074176;28;20259;-64
2024/02/02 10:02:38;;;;;;;22.63;9.95;;;7.00;99.90;;;;;;5074179;28;20229;-64
2024/02/02 10:05:27;;;;;;;33.33;13.27;;;7.10;99.90;;;;;;5074135;28;20183;-64
2024/02/02 10:08:19;;;;;;;68.90;12.48;;;7.10;99.90;;;;;;5073742;28;20188;-63
2024/02/02 10:11:28;;;;;;;29.95;11.30;;;7.20;99.90;;;;;;5073752;28;20196;-64
2024/02/02 10:14:35;;;;;;;7.20;5.68;;;7.10;99.90;;;;;;5011898;28;20191;-63
2024/02/02 10:17:12;;;;;;;8.23;5.95;;;7.00;99.90;;;;;;4968901;28;20210;-64
2024/02/02 10:20:02;;;;;;;5.47;4.60;;;6.90;99.90;;;;;;5065546;28;20196;-64
2024/02/02 10:22:54;;;;;;;4.47;3.67;;;7.00;99.90;;;;;;5073902;28;20715;-64
2024/02/02 10:25:52;;;;;;;4.38;3.10;;;7.20;99.90;;;;;;5073721;28;20179;-63
2024/02/02 10:28:30;;;;;;;7.03;5.55;;;7.40;99.90;;;;;;5050045;28;20185;-64
2024/02/02 10:31:21;;;;;;;5.65;5.05;;;7.60;99.90;;;;;;5071842;28;20203;-64
2024/02/02 10:33:58;;;;;;;6.57;4.25;;;7.70;99.90;;;;;;5033215;28;20189;-64
2024/02/02 10:36:45;;;;;;;4.57;3.92;;;7.70;99.90;;;;;;5049148;28;20207;-63
2024/02/02 10:39:20;;;;;;;7.90;4.30;;;7.70;99.90;;;;;;5054923;28;20609;-63
2024/02/02 10:42:12;;;;;;;5.82;4.70;;;7.70;99.90;;;;;;5044130;28;22111;-65
2024/02/02 10:44:48;;;;;;;4.82;3.22;;;7.80;99.90;;;;;;5029944;28;20200;-62
2024/02/02 10:47:29;;;;;;;4.05;3.42;;;7.90;99.90;;;;;;5038268;28;20196;-66
2024/02/02 10:50:10;;;;;;;4.18;3.20;;;7.70;99.90;;;;;;5054552;28;20205;-64
2024/02/02 10:52:56;;;;;;;5.25;4.20;;;7.60;99.90;;;;;;5061348;28;20181;-64
2024/02/02 10:56:11;;;;;;;3.92;3.45;;;7.60;99.90;;;;;;5073349;28;20193;-64
2024/02/02 10:58:55;;;;;;;5.78;4.13;;;7.90;99.90;;;;;;5073105;28;20165;-64
2024/02/02 11:01:35;;;;;;;3.65;3.33;;;8.00;99.90;;;;;;5073014;28;20197;-64
2024/02/02 11:04:30;;;;;;;2.45;2.25;;;8.20;99.90;;;;;;5073403;28;20177;-64
2024/02/02 11:07:16;;;;;;;4.03;2.92;;;8.30;99.90;;;;;;5072534;28;20279;-64
2024/02/02 11:09:59;;;;;;;4.38;2.95;;;8.50;99.90;;;;;;5060127;28;20227;-64
2024/02/02 11:12:40;;;;;;;2.75;2.55;;;8.70;99.90;;;;;;5050930;28;20567;-64
2024/02/02 11:15:31;;;;;;;2.35;2.15;;;8.80;99.90;;;;;;5056842;28;20578;-64
2024/02/02 11:18:05;;;;;;;16.27;12.13;;;8.90;99.90;;;;;;5062595;28;20186;-64
2024/02/02 11:20:50;;;;;;;2.00;1.90;;;8.90;99.90;;;;;;5072112;28;20173;-64
2024/02/02 11:23:34;;;;;;;2.03;1.92;;;8.90;99.90;;;;;;5060226;28;20166;-64
2024/02/02 11:26:06;;;;;;;1.92;1.80;;;9.00;99.90;;;;;;5072160;28;20219;-64
2024/02/02 11:29:02;;;;;;;2.63;2.40;;;9.10;99.90;;;;;;5071766;28;20724;-64
2024/02/02 11:31:43;;;;;;;2.95;2.47;;;9.20;99.90;;;;;;5055942;28;20281;-64
2024/02/02 11:34:45;;;;;;;2.30;2.10;;;9.30;99.90;;;;;;5058731;28;20201;-64
2024/02/02 11:37:19;;;;;;;2.63;1.85;;;9.30;99.90;;;;;;5060226;28;20217;-64
2024/02/02 11:39:59;;;;;;;4.13;3.40;;;9.30;99.90;;;;;;5070045;28;20175;-64
2024/02/02 11:42:26;;;;;;;2.28;2.05;;;9.30;99.90;;;;;;5068858;28;20220;-64
2024/02/02 11:44:55;;;;;;;2.30;2.08;;;9.30;99.50;;;;;;5062385;28;20228;-64
2024/02/02 11:47:22;;;;;;;3.80;2.17;;;9.40;99.40;;;;;;5065259;28;20197;-64
2024/02/02 11:49:56;;;;;;;3.70;2.67;;;9.40;99.40;;;;;;5063742;28;20280;-64
2024/02/02 11:52:31;;;;;;;3.95;2.38;;;9.50;99.70;;;;;;5072129;28;20169;-64
2024/02/02 11:55:08;;;;;;;2.58;2.38;;;9.60;98.50;;;;;;5071907;28;20226;-64
2024/02/02 11:57:39;;;;;;;2.35;2.00;;;9.80;98.60;;;;;;5071643;28;20189;-64
2024/02/02 12:00:08;;;;;;;3.42;2.05;;;9.70;97.90;;;;;;5057458;28;20182;-64
2024/02/02 12:02:37;;;;;;;2.03;1.65;;;9.70;98.50;;;;;;5060033;28;20522;-64
2024/02/02 12:05:18;;;;;;;3.13;2.40;;;9.70;97.90;;;;;;5053992;28;20185;-64
2024/02/02 12:08:02;;;;;;;2.22;1.80;;;9.30;97.70;;;;;;5060733;28;20193;-64
2024/02/02 12:10:32;;;;;;;2.95;1.85;;;9.40;98.30;;;;;;5070392;28;20651;-64
2024/02/02 12:13:09;;;;;;;2.25;1.65;;;9.50;98.50;;;;;;5071236;28;20651;-64
2024/02/02 12:15:35;;;;;;;3.28;2.38;;;9.60;97.70;;;;;;5071176;28;20256;-64
2024/02/02 12:18:00;;;;;;;2.70;1.80;;;9.80;97.90;;;;;;5070177;28;20728;-64
2024/02/02 12:20:29;;;;;;;1.30;1.20;;;10.00;97.30;;;;;;5071594;28;20535;-64
2024/02/02 12:22:54;;;;;;;2.45;1.95;;;10.20;97.60;;;;;;5062639;28;20686;-64
2024/02/02 12:25:20;;;;;;;1.57;1.47;;;10.30;96.80;;;;;;5051298;28;20198;-64
2024/02/02 12:27:46;;;;;;;2.50;1.87;;;10.30;96.90;;;;;;5058429;28;20194;-64
2024/02/02 12:30:14;;;;;;;1.57;1.47;;;10.50;96.80;;;;;;5043350;28;20194;-64
2024/02/02 12:32:50;;;;;;;2.45;1.98;;;10.50;95.90;;;;;;5046937;28;20417;-64
2024/02/02 12:35:15;;;;;;;2.40;2.10;;;10.60;95.10;;;;;;5049228;28;20534;-64
2024/02/02 12:37:47;;;;;;;2.93;1.77;;;10.60;94.30;;;;;;5050585;28;20201;-64
2024/02/02 12:40:13;;;;;;;10.10;4.70;;;10.50;94.60;;;;;;5045604;28;20190;-64
2024/02/02 12:42:39;;;;;;;2.50;1.80;;;10.30;94.80;;;;;;5052177;28;20460;-64
2024/02/02 12:45:09;;;;;;;2.70;2.20;;;10.30;94.90;;;;;;5059485;28;20194;-64
2024/02/02 12:47:38;;;;;;;2.35;1.35;;;10.30;95.30;;;;;;5066941;28;20284;-64
2024/02/02 12:50:14;;;;;;;1.40;1.30;;;10.30;94.80;;;;;;5071525;28;20308;-64
2024/02/02 12:52:43;;;;;;;1.70;1.60;;;10.30;95.20;;;;;;5071442;28;20165;-64
2024/02/02 12:55:09;;;;;;;1.30;1.20;;;10.10;93.80;;;;;;5071395;28;20541;-64
2024/02/02 12:57:36;;;;;;;1.48;1.38;;;9.90;95.50;;;;;;5070859;28;20202;-64
2024/02/02 13:00:05;;;;;;;1.40;1.30;;;9.80;96.60;;;;;;5054776;28;20681;-64
2024/02/02 13:02:32;;;;;;;1.27;1.10;;;9.60;97.90;;;;;;5044421;28;20688;-64
2024/02/02 13:05:00;;;;;;;1.70;1.50;;;9.40;97.40;;;;;;5039608;28;20603;-64
2024/02/02 13:07:27;;;;;;;1.92;1.83;;;9.50;97.40;;;;;;5041644;28;20198;-64
2024/02/02 13:09:55;;;;;;;2.05;1.55;;;9.50;96.70;;;;;;5050642;28;20205;-64
2024/02/02 13:12:27;;;;;;;1.55;1.45;;;9.50;95.90;;;;;;5057586;28;20185;-64
2024/02/02 13:15:14;;;;;;;2.33;1.45;;;9.40;96.80;;;;;;5044720;28;20183;-63